createdAt,value
2018-09-25T00:02:08.632Z,7.70
2018-09-25T00:04:42.459Z,7.60
2018-09-25T00:07:16.275Z,7.90
2018-09-25T00:09:50.376Z,7.70
2018-09-25T00:12:24.165Z,8.00
2018-09-25T00:14:57.879Z,7.70
2018-09-25T00:17:31.555Z,7.90
2018-09-25T00:20:05.386Z,7.70
2018-09-25T00:22:39.217Z,7.70
2018-09-25T00:25:12.971Z,7.70
2018-09-25T00:27:46.752Z,7.70
2018-09-25T00:30:20.543Z,7.80
2018-09-25T00:32:54.339Z,7.60
2018-09-25T00:35:28.031Z,7.60
2018-09-25T00:40:35.509Z,7.40
2018-09-25T00:43:09.257Z,7.50
2018-09-25T00:45:42.969Z,7.30
2018-09-25T00:48:16.655Z,7.30
2018-09-25T00:50:50.629Z,6.80
2018-09-25T00:53:24.419Z,6.70
2018-09-25T00:55:58.077Z,6.90
2018-09-25T00:58:31.898Z,6.90
2018-09-25T01:01:05.824Z,6.80
2018-09-25T01:03:39.574Z,6.70
2018-09-25T01:06:13.321Z,6.30
2018-09-25T01:08:46.967Z,6.70
2018-09-25T01:11:20.773Z,6.50
2018-09-25T01:13:54.481Z,6.60
2018-09-25T01:16:28.136Z,6.40
2018-09-25T01:19:01.887Z,6.40
2018-09-25T01:21:35.569Z,6.30
2018-09-25T01:24:09.199Z,6.20
2018-09-25T01:26:43.041Z,6.20
2018-09-25T01:29:16.813Z,6.30
2018-09-25T01:31:50.551Z,6.20
2018-09-25T01:34:24.269Z,6.00
2018-09-25T01:39:31.590Z,6.00
2018-09-25T01:42:05.253Z,5.90
2018-09-25T01:44:39.051Z,5.90
2018-09-25T01:47:12.915Z,5.80
2018-09-25T01:49:46.598Z,5.80
2018-09-25T01:52:20.531Z,5.80
2018-09-25T01:54:54.333Z,5.80
2018-09-25T01:57:28.105Z,5.80
2018-09-25T02:00:01.875Z,5.70
2018-09-25T02:02:35.661Z,5.70
2018-09-25T02:05:09.364Z,5.60
2018-09-25T02:07:43.038Z,5.60
2018-09-25T02:10:16.746Z,5.40
2018-09-25T02:12:50.578Z,5.50
2018-09-25T02:15:24.205Z,5.50
2018-09-25T02:17:57.890Z,5.50
2018-09-25T02:20:31.565Z,5.40
2018-09-25T02:23:05.370Z,5.40
2018-09-25T02:25:39.067Z,5.20
2018-09-25T02:28:12.962Z,5.40
2018-09-25T02:33:20.195Z,5.30
2018-09-25T02:35:54.040Z,5.30
2018-09-25T02:38:27.717Z,5.30
2018-09-25T02:41:01.278Z,5.10
2018-09-25T02:43:34.904Z,4.80
2018-09-25T02:46:08.701Z,5.30
2018-09-25T02:48:42.404Z,5.20
2018-09-25T02:51:16.248Z,5.40
2018-09-25T02:53:50.098Z,5.20
2018-09-25T02:56:23.839Z,5.10
2018-09-25T02:58:57.448Z,5.20
2018-09-25T03:01:31.306Z,5.20
2018-09-25T03:04:05.094Z,5.10
2018-09-25T03:09:13.413Z,5.20
2018-09-25T03:11:47.326Z,5.00
2018-09-25T03:14:21.222Z,5.10
2018-09-25T03:16:55.144Z,5.20
2018-09-25T03:19:28.968Z,5.00
2018-09-25T03:22:02.842Z,4.90
2018-09-25T03:24:36.622Z,5.00
2018-09-25T03:27:10.230Z,5.20
2018-09-25T03:29:43.954Z,4.80
2018-09-25T03:32:17.726Z,4.90
2018-09-25T03:34:51.444Z,4.90
2018-09-25T03:37:25.023Z,5.10
2018-09-25T03:39:58.720Z,5.00
2018-09-25T03:42:32.449Z,5.20
2018-09-25T03:45:06.014Z,5.00
2018-09-25T03:47:39.897Z,5.40
2018-09-25T03:50:13.693Z,5.20
2018-09-25T03:52:47.459Z,4.80
2018-09-25T03:55:21.183Z,5.50
2018-09-25T03:57:55.092Z,5.60
2018-09-25T04:00:28.729Z,5.50
2018-09-25T04:03:02.613Z,5.70
2018-09-25T04:05:36.212Z,7.10
2018-09-25T04:08:09.980Z,5.60
2018-09-25T04:10:43.831Z,5.60
2018-09-25T04:13:17.477Z,5.50
2018-09-25T04:15:51.055Z,5.40
2018-09-25T04:18:24.816Z,5.70
2018-09-25T04:20:58.560Z,5.40
2018-09-25T04:23:32.121Z,5.50
2018-09-25T04:26:05.791Z,5.50
2018-09-25T04:28:39.550Z,6.10
2018-09-25T04:31:13.281Z,5.60
2018-09-25T04:33:47.111Z,5.70
2018-09-25T04:36:20.851Z,5.80
2018-09-25T04:38:54.573Z,5.80
2018-09-25T04:41:28.401Z,5.80
2018-09-25T04:44:02.113Z,5.90
2018-09-25T04:46:36.030Z,5.90
2018-09-25T04:49:09.993Z,6.00
2018-09-25T04:51:43.651Z,6.50
2018-09-25T04:54:17.452Z,6.00
2018-09-25T04:56:51.188Z,5.90
2018-09-25T04:59:24.973Z,6.10
2018-09-25T05:01:58.834Z,6.10
2018-09-25T05:04:32.693Z,6.20
2018-09-25T05:07:06.462Z,6.20
2018-09-25T05:09:40.136Z,6.20
2018-09-25T05:12:13.889Z,6.30
2018-09-25T05:14:47.755Z,6.20
2018-09-25T05:17:21.317Z,6.30
2018-09-25T05:19:55.173Z,6.10
2018-09-25T05:22:28.891Z,6.30
2018-09-25T05:25:02.570Z,6.20
2018-09-25T05:27:36.213Z,6.40
2018-09-25T05:30:10.105Z,6.40
2018-09-25T05:32:43.751Z,6.60
2018-09-25T05:35:17.473Z,6.30
2018-09-25T05:37:51.225Z,6.30
2018-09-25T05:40:25.006Z,6.30
2018-09-25T05:42:58.606Z,6.30
2018-09-25T05:45:32.317Z,6.40
2018-09-25T05:48:06.093Z,6.30
2018-09-25T05:50:39.728Z,5.80
2018-09-25T05:53:13.398Z,6.20
2018-09-25T05:55:46.954Z,6.30
2018-09-25T05:58:20.687Z,6.40
2018-09-25T06:00:54.918Z,6.50
2018-09-25T06:06:02.390Z,6.50
2018-09-25T06:08:36.333Z,6.60
2018-09-25T06:13:43.318Z,6.50
2018-09-25T06:16:16.990Z,6.60
2018-09-25T06:18:50.776Z,6.50
2018-09-25T06:21:24.459Z,6.50
2018-09-25T06:23:58.233Z,6.50
2018-09-25T06:29:05.510Z,6.50
2018-09-25T06:31:39.227Z,6.50
2018-09-25T06:34:13.004Z,6.40
2018-09-25T06:39:20.192Z,6.50
2018-09-25T06:41:53.981Z,6.60
2018-09-25T06:44:27.673Z,6.70
2018-09-25T06:47:01.455Z,6.80
2018-09-25T06:49:35.181Z,6.90
2018-09-25T06:52:08.908Z,6.90
2018-09-25T06:54:42.706Z,6.90
2018-09-25T06:57:16.499Z,7.00
2018-09-25T06:59:50.248Z,7.00
2018-09-25T07:02:23.971Z,7.20
2018-09-25T07:04:57.729Z,7.10
2018-09-25T07:10:05.034Z,7.20
2018-09-25T07:12:38.803Z,7.30
2018-09-25T07:15:12.605Z,7.20
2018-09-25T07:17:46.270Z,7.40
2018-09-25T07:20:20.095Z,7.30
2018-09-25T07:22:54.851Z,7.40
2018-09-25T07:25:28.599Z,7.50
2018-09-25T07:28:02.188Z,7.50
2018-09-25T07:30:36.019Z,7.60
2018-09-25T07:33:09.580Z,7.60
2018-09-25T07:35:43.295Z,7.80
2018-09-25T07:38:16.884Z,7.70
2018-09-25T07:40:50.586Z,7.60
2018-09-25T07:43:24.349Z,7.80
2018-09-25T07:45:58.031Z,7.70
2018-09-25T07:48:31.881Z,7.80
2018-09-25T07:51:05.437Z,8.00
2018-09-25T07:53:39.169Z,8.10
2018-09-25T07:56:12.795Z,8.00
2018-09-25T07:58:46.471Z,8.30
2018-09-25T08:01:20.069Z,8.30
2018-09-25T08:03:53.679Z,8.70
2018-09-25T08:06:27.503Z,8.60
2018-09-25T08:09:01.321Z,8.70
2018-09-25T08:11:35.116Z,8.70
2018-09-25T08:14:09.013Z,8.80
2018-09-25T08:16:42.841Z,8.90
2018-09-25T08:19:16.723Z,8.90
2018-09-25T08:21:50.505Z,9.20
2018-09-25T08:24:24.363Z,9.30
2018-09-25T08:26:58.140Z,9.70
2018-09-25T08:29:31.984Z,9.90
2018-09-25T08:32:05.636Z,10.70
2018-09-25T08:34:39.224Z,11.00
2018-09-25T08:37:13.057Z,11.30
2018-09-25T08:39:46.766Z,11.40
2018-09-25T08:42:20.524Z,12.00
2018-09-25T08:44:54.298Z,12.40
2018-09-25T08:50:01.836Z,13.20
2018-09-25T08:52:35.699Z,12.60
2018-09-25T08:55:09.484Z,12.70
2018-09-25T08:57:43.151Z,12.60
2018-09-25T09:00:17.028Z,12.60
2018-09-25T09:02:50.706Z,13.40
2018-09-25T09:05:24.272Z,13.40
2018-09-25T09:07:58.090Z,12.40
2018-09-25T09:10:31.849Z,12.70
2018-09-25T09:13:05.534Z,12.60
2018-09-25T09:15:39.290Z,13.10
2018-09-25T09:18:13.282Z,13.90
2018-09-25T09:20:47.134Z,13.50
2018-09-25T09:23:21.014Z,13.60
2018-09-25T09:25:54.914Z,14.00
2018-09-25T09:28:28.707Z,14.20
2018-09-25T09:31:02.605Z,14.50
2018-09-25T09:33:36.431Z,13.40
2018-09-25T09:36:10.358Z,13.50
2018-09-25T09:38:44.100Z,13.10
2018-09-25T09:41:17.725Z,13.10
2018-09-25T09:43:51.502Z,13.30
2018-09-25T09:46:25.350Z,12.50
2018-09-25T09:48:59.160Z,11.60
2018-09-25T09:51:32.902Z,11.60
2018-09-25T09:54:06.733Z,11.20
2018-09-25T09:56:40.506Z,11.20
2018-09-25T09:59:14.076Z,11.90
2018-09-25T10:01:47.763Z,13.30
2018-09-25T10:04:21.452Z,14.60
2018-09-25T10:06:55.129Z,15.60
2018-09-25T10:09:28.994Z,16.10
2018-09-25T10:12:02.812Z,16.30
2018-09-25T10:14:36.495Z,14.80
2018-09-25T10:17:10.066Z,14.80
2018-09-25T10:19:43.774Z,14.10
2018-09-25T10:22:17.510Z,14.00
2018-09-25T10:24:51.388Z,13.40
2018-09-25T10:27:25.284Z,13.60
2018-09-25T10:29:59.092Z,13.70
2018-09-25T10:32:32.835Z,13.60
2018-09-25T10:35:06.614Z,14.40
2018-09-25T10:37:40.476Z,14.20
2018-09-25T10:40:14.111Z,14.40
2018-09-25T10:42:47.771Z,13.80
2018-09-25T10:45:21.329Z,13.80
2018-09-25T10:47:55.211Z,12.30
2018-09-25T10:50:28.897Z,12.20
2018-09-25T10:53:02.666Z,12.80
2018-09-25T10:55:36.412Z,12.80
2018-09-25T10:58:11.121Z,13.40
2018-09-25T11:04:21.877Z,14.90
2018-09-25T11:06:55.709Z,14.40
2018-09-25T11:09:29.381Z,14.70
2018-09-25T11:12:03.258Z,15.30
2018-09-25T11:14:43.888Z,15.80
2018-09-25T11:17:17.637Z,15.90
2018-09-25T11:19:51.365Z,15.80
2018-09-25T11:22:25.173Z,16.80
2018-09-25T11:24:59.242Z,16.70
2018-09-25T11:27:32.946Z,16.20
2018-09-25T11:30:06.780Z,16.00
2018-09-25T11:32:40.455Z,16.00
2018-09-25T11:35:14.324Z,15.90
2018-09-25T11:37:48.034Z,16.90
2018-09-25T11:40:23.786Z,17.30
2018-09-25T11:42:57.479Z,17.60
2018-09-25T11:45:31.373Z,16.90
2018-09-25T11:48:05.159Z,15.90
2018-09-25T11:50:38.866Z,16.60
2018-09-25T11:53:12.674Z,17.60
2018-09-25T11:55:46.319Z,18.40
2018-09-25T11:58:20.186Z,19.20
2018-09-25T12:00:53.933Z,18.50
2018-09-25T12:03:27.802Z,17.90
2018-09-25T12:06:01.626Z,17.70
2018-09-25T12:08:35.358Z,17.70
2018-09-25T12:11:09.049Z,16.60
2018-09-25T12:13:42.809Z,16.40
2018-09-25T12:16:16.526Z,16.80
2018-09-25T12:18:50.368Z,17.10
2018-09-25T12:21:24.284Z,16.70
2018-09-25T12:23:58.118Z,16.50
2018-09-25T12:26:31.911Z,16.00
2018-09-25T12:29:05.794Z,15.30
2018-09-25T12:31:39.502Z,15.30
2018-09-25T12:34:13.144Z,15.20
2018-09-25T12:36:46.771Z,15.30
2018-09-25T12:39:20.552Z,14.60
2018-09-25T12:41:54.292Z,14.20
2018-09-25T12:44:27.881Z,13.90
2018-09-25T12:47:01.689Z,13.60
2018-09-25T12:49:35.498Z,13.50
2018-09-25T12:52:09.203Z,13.50
2018-09-25T12:54:42.994Z,13.50
2018-09-25T12:57:16.943Z,13.60
2018-09-25T12:59:50.584Z,13.60
2018-09-25T13:02:24.218Z,13.60
2018-09-25T13:04:58.022Z,13.60
2018-09-25T13:07:31.766Z,13.50
2018-09-25T13:10:05.556Z,13.50
2018-09-25T13:12:39.345Z,13.30
2018-09-25T13:17:46.590Z,13.70
2018-09-25T13:20:20.456Z,13.70
2018-09-25T13:22:54.170Z,13.70
2018-09-25T13:25:28.018Z,13.70
2018-09-25T13:28:01.874Z,13.60
2018-09-25T13:30:35.744Z,13.50
2018-09-25T13:33:09.563Z,13.00
2018-09-25T13:35:43.292Z,13.10
2018-09-25T13:38:17.042Z,13.10
2018-09-25T13:40:50.826Z,13.20
2018-09-25T13:43:24.433Z,13.30
2018-09-25T13:45:58.238Z,13.30
2018-09-25T13:48:32.151Z,13.40
2018-09-25T13:51:05.883Z,13.50
2018-09-25T13:53:39.672Z,13.50
2018-09-25T13:56:13.491Z,13.50
2018-09-25T13:58:47.279Z,13.50
2018-09-25T14:01:21.061Z,13.40
2018-09-25T14:03:54.998Z,13.40
2018-09-25T14:06:28.843Z,13.40
2018-09-25T14:09:02.704Z,13.40
2018-09-25T14:11:36.401Z,13.20
2018-09-25T14:14:10.195Z,13.00
2018-09-25T14:16:43.903Z,13.10
2018-09-25T14:19:17.735Z,12.90
2018-09-25T14:21:51.619Z,12.90
2018-09-25T14:24:25.347Z,12.80
2018-09-25T14:26:59.028Z,12.80
2018-09-25T14:29:32.765Z,12.90
2018-09-25T14:32:06.528Z,12.70
2018-09-25T14:34:40.292Z,12.70
2018-09-25T14:37:14.244Z,12.70
2018-09-25T14:39:48.124Z,12.60
2018-09-25T14:42:21.889Z,12.60
2018-09-25T14:44:55.805Z,12.60
2018-09-25T14:47:29.521Z,12.40
2018-09-25T14:50:03.427Z,12.40
2018-09-25T14:52:37.229Z,12.50
2018-09-25T14:55:11.140Z,12.40
2018-09-25T14:57:44.769Z,12.50
2018-09-25T15:00:18.597Z,12.40
2018-09-25T15:02:52.275Z,12.40
2018-09-25T15:05:26.135Z,12.40
2018-09-25T15:07:59.893Z,12.20
2018-09-25T15:10:33.824Z,12.10
2018-09-25T15:13:07.491Z,12.10
2018-09-25T15:15:41.172Z,12.10
2018-09-25T15:18:14.964Z,12.10
2018-09-25T15:20:48.699Z,12.10
2018-09-25T15:23:22.496Z,12.00
2018-09-25T15:25:56.218Z,12.00
2018-09-25T15:28:30.012Z,11.90
2018-09-25T15:31:03.870Z,12.00
2018-09-25T15:33:37.682Z,12.30
2018-09-25T15:36:11.707Z,11.90
2018-09-25T15:38:46.606Z,11.80
2018-09-25T15:41:20.313Z,11.80
2018-09-25T15:43:54.110Z,11.70
2018-09-25T15:46:27.913Z,11.70
2018-09-25T15:49:01.675Z,11.70
2018-09-25T15:51:35.490Z,11.60
2018-09-25T15:54:09.336Z,11.50
2018-09-25T15:56:43.217Z,11.70
2018-09-25T15:59:17.103Z,11.50
2018-09-25T16:01:51.016Z,11.40
2018-09-25T16:04:24.985Z,11.50
2018-09-25T16:06:58.650Z,11.30
2018-09-25T16:09:32.286Z,11.20
2018-09-25T16:12:06.198Z,11.10
2018-09-25T16:14:39.898Z,11.10
2018-09-25T16:17:13.773Z,11.10
2018-09-25T16:19:47.475Z,11.10
2018-09-25T16:22:21.149Z,11.10
2018-09-25T16:24:54.956Z,11.00
2018-09-25T16:27:28.790Z,11.00
2018-09-25T16:30:03.006Z,10.80
2018-09-25T16:32:36.949Z,10.80
2018-09-25T16:35:10.705Z,10.40
2018-09-25T16:37:44.337Z,10.50
2018-09-25T16:40:18.135Z,10.50
2018-09-25T16:42:51.950Z,10.40
2018-09-25T16:45:25.669Z,10.30
2018-09-25T16:47:59.683Z,10.10
2018-09-25T16:50:33.502Z,10.00
2018-09-25T16:53:07.370Z,9.90
2018-09-25T16:55:41.352Z,10.00
2018-09-25T16:58:15.280Z,10.10
2018-09-25T17:00:49.036Z,9.70
2018-09-25T17:03:23.794Z,9.80
2018-09-25T17:05:57.632Z,9.50
2018-09-25T17:08:31.444Z,9.50
2018-09-25T17:11:05.064Z,9.50
2018-09-25T17:13:39.823Z,9.40
2018-09-25T17:16:13.590Z,9.30
2018-09-25T17:18:47.532Z,9.20
2018-09-25T17:23:55.455Z,8.90
2018-09-25T17:26:29.318Z,8.70
2018-09-25T17:29:03.026Z,8.80
2018-09-25T17:31:36.902Z,8.80
2018-09-25T17:36:44.232Z,8.30
2018-09-25T17:39:18.131Z,8.80
2018-09-25T17:44:25.535Z,8.40
2018-09-25T17:46:59.502Z,7.90
2018-09-25T17:49:33.302Z,8.10
2018-09-25T17:52:07.599Z,8.10
2018-09-25T17:54:41.906Z,7.90
2018-09-25T17:57:16.021Z,8.00
2018-09-25T17:59:50.225Z,8.30
2018-09-25T18:02:24.058Z,7.80
2018-09-25T18:05:01.342Z,7.80
2018-09-25T18:07:35.380Z,7.80
2018-09-25T18:10:09.667Z,7.70
2018-09-25T18:15:16.988Z,7.60
2018-09-25T18:17:50.845Z,7.50
2018-09-25T18:22:58.650Z,7.30
2018-09-25T18:25:32.443Z,6.90
2018-09-25T18:28:06.564Z,7.00
2018-09-25T18:30:40.310Z,6.90
2018-09-25T18:33:15.701Z,6.80
2018-09-25T18:35:50.642Z,6.70
2018-09-25T18:38:25.617Z,6.50
2018-09-25T18:41:04.779Z,6.40
2018-09-25T18:43:40.078Z,6.40
2018-09-25T18:46:14.244Z,6.20
2018-09-25T18:48:51.470Z,6.10
2018-09-25T18:51:26.020Z,6.30
2018-09-25T18:53:59.791Z,6.30
2018-09-25T18:56:34.272Z,6.10
2018-09-25T18:59:09.967Z,6.10
2018-09-25T19:01:44.760Z,6.00
2018-09-25T19:04:18.482Z,6.00
2018-09-25T19:06:52.269Z,6.10
2018-09-25T19:09:27.134Z,6.30
2018-09-25T19:12:00.915Z,5.80
2018-09-25T19:14:34.818Z,5.90
2018-09-25T19:17:09.448Z,5.80
2018-09-25T19:19:43.476Z,5.90
2018-09-25T19:22:18.320Z,5.70
2018-09-25T19:24:52.158Z,5.60
2018-09-25T19:27:26.255Z,6.90
2018-09-25T19:30:00.392Z,5.60
2018-09-25T19:32:34.773Z,5.30
2018-09-25T19:35:08.746Z,5.40
2018-09-25T19:37:43.401Z,6.00
2018-09-25T19:40:17.610Z,5.50
2018-09-25T19:42:51.854Z,5.40
2018-09-25T19:45:26.815Z,5.40
2018-09-25T19:48:00.852Z,5.30
2018-09-25T19:50:34.494Z,5.30
2018-09-25T19:53:08.806Z,5.20
2018-09-25T19:55:42.535Z,5.20
2018-09-25T19:58:17.025Z,4.90
2018-09-25T20:00:53.012Z,5.10
2018-09-25T20:03:26.834Z,4.80
2018-09-25T20:06:00.790Z,4.70
2018-09-25T20:08:34.457Z,4.70
2018-09-25T20:11:08.964Z,4.80
2018-09-25T20:13:42.992Z,4.90
2018-09-25T20:16:16.958Z,4.70
2018-09-25T20:18:50.666Z,4.80
2018-09-25T20:21:24.587Z,4.80
2018-09-25T20:24:00.024Z,4.80
2018-09-25T20:26:33.938Z,4.70
2018-09-25T20:29:09.367Z,4.80
2018-09-25T20:31:43.337Z,5.00
2018-09-25T20:34:17.137Z,4.80
2018-09-25T20:36:50.969Z,4.60
2018-09-25T20:39:24.857Z,4.80
2018-09-25T20:41:58.825Z,4.50
2018-09-25T20:44:33.108Z,4.40
2018-09-25T20:47:06.889Z,4.50
2018-09-25T20:49:40.674Z,4.50
2018-09-25T20:52:15.536Z,4.30
2018-09-25T20:54:49.556Z,4.50
2018-09-25T20:57:24.262Z,4.30
2018-09-25T20:59:58.098Z,4.50
2018-09-25T21:02:31.699Z,4.00
2018-09-25T21:05:05.523Z,4.90
2018-09-25T21:07:39.209Z,4.40
2018-09-25T21:10:13.412Z,4.20
2018-09-25T21:12:47.255Z,4.30
2018-09-25T21:15:21.051Z,4.00
2018-09-25T21:17:54.876Z,4.10
2018-09-25T21:20:28.769Z,4.00
2018-09-25T21:23:02.662Z,3.90
2018-09-25T21:25:36.306Z,4.00
2018-09-25T21:28:10.032Z,4.70
2018-09-25T21:30:50.565Z,4.20
2018-09-25T21:33:24.267Z,4.20
2018-09-25T21:35:58.062Z,4.30
2018-09-25T21:38:31.820Z,4.00
2018-09-25T21:41:05.633Z,3.90
2018-09-25T21:43:39.494Z,3.90
2018-09-25T21:46:13.653Z,4.50
2018-09-25T21:48:47.598Z,4.00
2018-09-25T21:51:21.413Z,4.00
2018-09-25T21:53:55.107Z,3.90
2018-09-25T21:56:29.056Z,3.70
2018-09-25T21:59:02.943Z,3.80
2018-09-25T22:01:36.639Z,3.70
2018-09-25T22:04:10.347Z,3.80
2018-09-25T22:06:44.005Z,3.70
2018-09-25T22:09:17.824Z,3.70
2018-09-25T22:11:51.552Z,3.60
2018-09-25T22:16:57.163Z,3.50
2018-09-25T22:19:31.131Z,3.50
2018-09-25T22:22:04.949Z,3.40
2018-09-25T22:24:38.789Z,3.30
2018-09-25T22:27:12.588Z,3.30
2018-09-25T22:29:46.401Z,3.30
2018-09-25T22:34:53.862Z,3.30
2018-09-25T22:37:27.706Z,3.30
2018-09-25T22:40:01.457Z,3.30
2018-09-25T22:42:35.269Z,3.20
2018-09-25T22:45:09.050Z,3.40
2018-09-25T22:47:42.893Z,3.20
2018-09-25T22:50:16.508Z,3.30
2018-09-25T22:52:50.393Z,3.10
2018-09-25T22:55:24.119Z,3.10
2018-09-25T22:57:57.954Z,2.90
2018-09-25T23:00:31.591Z,3.00
2018-09-25T23:03:05.430Z,2.80
2018-09-25T23:05:39.146Z,2.90
2018-09-25T23:08:12.830Z,2.80
2018-09-25T23:10:46.631Z,2.90
2018-09-25T23:13:20.450Z,2.80
2018-09-25T23:15:54.110Z,2.90
2018-09-25T23:18:27.818Z,2.40
2018-09-25T23:21:01.498Z,2.80
2018-09-25T23:23:35.270Z,2.80
2018-09-25T23:26:09.011Z,3.10
2018-09-25T23:28:42.750Z,3.20
2018-09-25T23:31:16.494Z,2.80
2018-09-25T23:33:50.289Z,2.70
2018-09-25T23:36:24.102Z,2.70
2018-09-25T23:38:57.935Z,2.70
2018-09-25T23:41:32.455Z,2.70
2018-09-25T23:44:05.969Z,2.70
2018-09-25T23:46:39.610Z,2.40
2018-09-25T23:49:21.654Z,2.80
2018-09-25T23:54:01.989Z,2.80
2018-09-25T23:56:35.802Z,2.90
2018-09-25T23:59:09.258Z,2.80
